sensor_id;sensor_type;location;lat;lon;timestamp;pressure;altitude;pressure_sealevel;temperature;humidity
52855;BME280;38719;51.418;7.286;2023-02-15T00:01:17;101101.38;;;8.45;56.40
52855;BME280;38719;51.418;7.286;2023-02-15T00:03:47;101096.72;;;8.59;55.60
52855;BME280;38719;51.418;7.286;2023-02-15T00:06:15;101081.84;;;8.50;55.32
52855;BME280;38719;51.418;7.286;2023-02-15T00:08:43;101073.88;;;8.49;56.22
52855;BME280;38719;51.418;7.286;2023-02-15T00:11:13;101086.22;;;8.53;56.16
52855;BME280;38719;51.418;7.286;2023-02-15T00:13:41;101078.47;;;8.39;55.64
52855;BME280;38719;51.418;7.286;2023-02-15T00:16:10;101075.00;;;8.35;55.62
52855;BME280;38719;51.418;7.286;2023-02-15T00:18:39;101075.03;;;8.32;55.75
52855;BME280;38719;51.418;7.286;2023-02-15T00:21:08;101072.25;;;8.40;55.56
52855;BME280;38719;51.418;7.286;2023-02-15T00:23:36;101065.97;;;8.46;56.59
52855;BME280;38719;51.418;7.286;2023-02-15T00:26:07;101064.06;;;8.54;55.28
52855;BME280;38719;51.418;7.286;2023-02-15T00:28:35;101062.44;;;8.44;55.95
52855;BME280;38719;51.418;7.286;2023-02-15T00:31:04;101057.09;;;8.48;55.76
52855;BME280;38719;51.418;7.286;2023-02-15T00:33:32;101051.72;;;8.53;56.75
52855;BME280;38719;51.418;7.286;2023-02-15T00:36:00;101053.50;;;8.51;55.73
52855;BME280;38719;51.418;7.286;2023-02-15T00:38:30;101056.84;;;8.61;55.99
52855;BME280;38719;51.418;7.286;2023-02-15T00:40:59;101060.44;;;8.58;55.14
52855;BME280;38719;51.418;7.286;2023-02-15T00:43:30;101054.47;;;8.44;55.65
52855;BME280;38719;51.418;7.286;2023-02-15T00:45:58;101056.66;;;8.23;56.48
52855;BME280;38719;51.418;7.286;2023-02-15T00:48:27;101056.75;;;8.15;56.97
52855;BME280;38719;51.418;7.286;2023-02-15T00:50:56;101068.97;;;8.26;56.13
52855;BME280;38719;51.418;7.286;2023-02-15T00:53:24;101062.66;;;8.33;56.87
52855;BME280;38719;51.418;7.286;2023-02-15T00:55:52;101067.88;;;8.39;56.48
52855;BME280;38719;51.418;7.286;2023-02-15T00:58:20;101062.44;;;8.44;56.50
52855;BME280;38719;51.418;7.286;2023-02-15T01:00:50;101066.81;;;8.49;56.31
52855;BME280;38719;51.418;7.286;2023-02-15T01:03:18;101064.19;;;8.48;55.88
52855;BME280;38719;51.418;7.286;2023-02-15T01:05:48;101066.75;;;8.52;56.01
52855;BME280;38719;51.418;7.286;2023-02-15T01:08:17;101060.59;;;8.49;55.81
52855;BME280;38719;51.418;7.286;2023-02-15T01:10:44;101061.53;;;8.45;56.15
52855;BME280;38719;51.418;7.286;2023-02-15T01:13:14;101056.66;;;8.23;55.86
52855;BME280;38719;51.418;7.286;2023-02-15T01:15:43;101061.34;;;8.07;56.93
52855;BME280;38719;51.418;7.286;2023-02-15T01:18:12;101063.31;;;7.94;56.80
52855;BME280;38719;51.418;7.286;2023-02-15T01:20:39;101051.88;;;7.92;57.01
52855;BME280;38719;51.418;7.286;2023-02-15T01:23:08;101058.19;;;7.82;57.77
52855;BME280;38719;51.418;7.286;2023-02-15T01:25:36;101048.06;;;7.51;58.26
52855;BME280;38719;51.418;7.286;2023-02-15T01:28:04;101058.56;;;7.57;58.99
52855;BME280;38719;51.418;7.286;2023-02-15T01:30:32;101051.47;;;7.61;57.91
52855;BME280;38719;51.418;7.286;2023-02-15T01:32:59;101047.97;;;7.57;58.15
52855;BME280;38719;51.418;7.286;2023-02-15T01:35:29;101049.09;;;7.40;58.63
52855;BME280;38719;51.418;7.286;2023-02-15T01:37:57;101041.38;;;7.26;59.82
52855;BME280;38719;51.418;7.286;2023-02-15T01:40:25;101034.28;;;7.27;59.56
52855;BME280;38719;51.418;7.286;2023-02-15T01:42:54;101042.13;;;7.36;58.91
52855;BME280;38719;51.418;7.286;2023-02-15T01:45:24;101041.06;;;7.47;59.49
52855;BME280;38719;51.418;7.286;2023-02-15T01:47:55;101037.44;;;7.52;59.41
52855;BME280;38719;51.418;7.286;2023-02-15T01:50:29;101039.72;;;7.75;57.98
52855;BME280;38719;51.418;7.286;2023-02-15T01:53:01;101036.84;;;7.91;58.57
52855;BME280;38719;51.418;7.286;2023-02-15T01:55:33;101032.41;;;7.91;57.77
52855;BME280;38719;51.418;7.286;2023-02-15T01:58:03;101040.31;;;7.95;58.05
52855;BME280;38719;51.418;7.286;2023-02-15T02:00:31;101033.22;;;7.95;57.82
52855;BME280;38719;51.418;7.286;2023-02-15T02:03:00;101028.88;;;7.91;57.12
52855;BME280;38719;51.418;7.286;2023-02-15T02:05:30;101022.59;;;7.97;56.96
52855;BME280;38719;51.418;7.286;2023-02-15T02:07:59;101023.56;;;7.93;57.79
52855;BME280;38719;51.418;7.286;2023-02-15T02:10:28;101012.50;;;7.67;57.89
52855;BME280;38719;51.418;7.286;2023-02-15T02:12:58;101020.44;;;7.67;57.36
52855;BME280;38719;51.418;7.286;2023-02-15T02:15:33;101010.00;;;7.56;58.52
52855;BME280;38719;51.418;7.286;2023-02-15T02:18:18;101011.94;;;7.45;58.92
52855;BME280;38719;51.418;7.286;2023-02-15T02:23:58;101003.91;;;7.50;59.13
52855;BME280;38719;51.418;7.286;2023-02-15T02:27:04;101000.22;;;7.60;58.23
52855;BME280;38719;51.418;7.286;2023-02-15T02:33:07;100994.03;;;7.61;58.42
52855;BME280;38719;51.418;7.286;2023-02-15T02:35:41;100991.44;;;7.56;58.59
52855;BME280;38719;51.418;7.286;2023-02-15T02:38:16;100986.06;;;7.61;58.76
52855;BME280;38719;51.418;7.286;2023-02-15T02:40:53;100987.34;;;7.35;58.70
52855;BME280;38719;51.418;7.286;2023-02-15T02:43:29;100980.63;;;7.11;60.20
52855;BME280;38719;51.418;7.286;2023-02-15T02:46:02;100968.50;;;6.94;60.48
52855;BME280;38719;51.418;7.286;2023-02-15T02:48:34;100974.53;;;7.06;60.41
52855;BME280;38719;51.418;7.286;2023-02-15T02:51:02;100969.97;;;7.16;59.70
52855;BME280;38719;51.418;7.286;2023-02-15T02:53:30;100972.44;;;7.28;59.21
52855;BME280;38719;51.418;7.286;2023-02-15T02:56:05;100971.44;;;7.35;59.87
52855;BME280;38719;51.418;7.286;2023-02-15T02:58:38;100960.91;;;7.31;59.02
52855;BME280;38719;51.418;7.286;2023-02-15T03:01:11;100955.94;;;7.10;59.88
52855;BME280;38719;51.418;7.286;2023-02-15T03:03:44;100957.63;;;7.15;59.65
52855;BME280;38719;51.418;7.286;2023-02-15T03:06:17;100955.81;;;7.18;59.87
52855;BME280;38719;51.418;7.286;2023-02-15T03:08:47;100956.66;;;7.20;60.40
52855;BME280;38719;51.418;7.286;2023-02-15T03:11:16;100952.00;;;7.35;59.13
52855;BME280;38719;51.418;7.286;2023-02-15T03:13:44;100951.38;;;7.19;59.94
52855;BME280;38719;51.418;7.286;2023-02-15T03:16:15;100948.81;;;7.14;59.79
52855;BME280;38719;51.418;7.286;2023-02-15T03:18:56;100946.81;;;7.30;60.15
52855;BME280;38719;51.418;7.286;2023-02-15T03:21:31;100942.31;;;7.35;58.94
52855;BME280;38719;51.418;7.286;2023-02-15T03:24:04;100934.75;;;7.10;60.11
52855;BME280;38719;51.418;7.286;2023-02-15T03:26:34;100945.31;;;7.12;59.51
52855;BME280;38719;51.418;7.286;2023-02-15T03:29:05;100938.13;;;7.20;60.02
52855;BME280;38719;51.418;7.286;2023-02-15T03:31:37;100936.03;;;7.39;59.28
52855;BME280;38719;51.418;7.286;2023-02-15T03:34:10;100934.88;;;7.56;59.63
52855;BME280;38719;51.418;7.286;2023-02-15T03:36:43;100938.34;;;7.61;58.95
52855;BME280;38719;51.418;7.286;2023-02-15T03:39:17;100943.63;;;7.63;58.96
52855;BME280;38719;51.418;7.286;2023-02-15T03:41:50;100940.16;;;7.59;58.10
52855;BME280;38719;51.418;7.286;2023-02-15T03:44:26;100943.66;;;7.61;57.93
52855;BME280;38719;51.418;7.286;2023-02-15T03:46:59;100939.97;;;7.68;57.78
52855;BME280;38719;51.418;7.286;2023-02-15T03:49:36;100945.25;;;7.71;57.77
52855;BME280;38719;51.418;7.286;2023-02-15T03:52:07;100941.63;;;7.75;57.65
52855;BME280;38719;51.418;7.286;2023-02-15T03:54:35;100938.97;;;7.75;57.52
52855;BME280;38719;51.418;7.286;2023-02-15T03:57:11;100952.22;;;7.75;57.54
52855;BME280;38719;51.418;7.286;2023-02-15T03:59:57;100939.88;;;7.74;57.82
52855;BME280;38719;51.418;7.286;2023-02-15T04:02:52;100945.16;;;7.74;57.46
52855;BME280;38719;51.418;7.286;2023-02-15T04:05:25;100944.50;;;7.63;57.70
52855;BME280;38719;51.418;7.286;2023-02-15T04:07:52;100939.22;;;7.62;58.62
52855;BME280;38719;51.418;7.286;2023-02-15T04:10:20;100940.06;;;7.64;58.44
52855;BME280;38719;51.418;7.286;2023-02-15T04:13:05;100938.16;;;7.72;57.43
52855;BME280;38719;51.418;7.286;2023-02-15T04:15:33;100932.22;;;7.57;57.82
52855;BME280;38719;51.418;7.286;2023-02-15T04:18:18;100930.69;;;7.44;58.14
52855;BME280;38719;51.418;7.286;2023-02-15T04:20:47;100934.22;;;7.43;59.23
52855;BME280;38719;51.418;7.286;2023-02-15T04:23:32;100931.50;;;7.48;58.58
52855;BME280;38719;51.418;7.286;2023-02-15T04:26:17;100929.66;;;7.53;58.31
52855;BME280;38719;51.418;7.286;2023-02-15T04:28:45;100923.56;;;7.48;58.62
52855;BME280;38719;51.418;7.286;2023-02-15T04:31:12;100931.47;;;7.49;58.54
52855;BME280;38719;51.418;7.286;2023-02-15T04:33:40;100925.34;;;7.46;58.99
52855;BME280;38719;51.418;7.286;2023-02-15T04:36:11;100930.94;;;7.27;58.34
52855;BME280;38719;51.418;7.286;2023-02-15T04:38:38;100929.94;;;7.34;59.38
52855;BME280;38719;51.418;7.286;2023-02-15T04:41:06;100924.59;;;7.37;58.37
52855;BME280;38719;51.418;7.286;2023-02-15T04:43:34;100927.25;;;7.39;59.04
52855;BME280;38719;51.418;7.286;2023-02-15T04:46:01;100930.56;;;7.50;58.88
52855;BME280;38719;51.418;7.286;2023-02-15T04:48:30;100924.34;;;7.53;58.67
52855;BME280;38719;51.418;7.286;2023-02-15T04:50:57;100930.50;;;7.55;58.51
52855;BME280;38719;51.418;7.286;2023-02-15T04:53:26;100929.63;;;7.54;57.87
52855;BME280;38719;51.418;7.286;2023-02-15T04:55:54;100925.25;;;7.52;58.13
52855;BME280;38719;51.418;7.286;2023-02-15T04:58:21;100925.13;;;7.58;58.68
52855;BME280;38719;51.418;7.286;2023-02-15T05:00:49;100923.34;;;7.58;57.89
52855;BME280;38719;51.418;7.286;2023-02-15T05:03:16;100923.38;;;7.57;57.38
52855;BME280;38719;51.418;7.286;2023-02-15T05:05:45;100925.09;;;7.61;57.73
52855;BME280;38719;51.418;7.286;2023-02-15T05:08:12;100919.91;;;7.55;57.69
52855;BME280;38719;51.418;7.286;2023-02-15T05:10:41;100918.97;;;7.57;57.65
52855;BME280;38719;51.418;7.286;2023-02-15T05:13:08;100917.31;;;7.50;57.89
52855;BME280;38719;51.418;7.286;2023-02-15T05:15:36;100921.97;;;7.36;58.41
52855;BME280;38719;51.418;7.286;2023-02-15T05:18:03;100914.25;;;7.22;58.45
52855;BME280;38719;51.418;7.286;2023-02-15T05:20:32;100917.78;;;7.21;58.62
52855;BME280;38719;51.418;7.286;2023-02-15T05:23:00;100914.13;;;7.30;58.94
52855;BME280;38719;51.418;7.286;2023-02-15T05:25:27;100918.56;;;7.29;59.04
52855;BME280;38719;51.418;7.286;2023-02-15T05:28:14;100902.56;;;7.34;58.06
52855;BME280;38719;51.418;7.286;2023-02-15T05:30:48;100896.47;;;7.30;58.02
52855;BME280;38719;51.418;7.286;2023-02-15T05:33:17;100891.19;;;7.27;58.68
52855;BME280;38719;51.418;7.286;2023-02-15T05:35:44;100909.06;;;7.13;58.65
52855;BME280;38719;51.418;7.286;2023-02-15T05:38:12;100893.25;;;7.09;58.51
52855;BME280;38719;51.418;7.286;2023-02-15T05:40:39;100905.59;;;7.10;58.68
52855;BME280;38719;51.418;7.286;2023-02-15T05:43:07;100895.94;;;7.08;58.35
52855;BME280;38719;51.418;7.286;2023-02-15T05:45:36;100893.31;;;7.05;58.24
52855;BME280;38719;51.418;7.286;2023-02-15T05:48:03;100895.13;;;7.01;59.15
52855;BME280;38719;51.418;7.286;2023-02-15T05:50:31;100890.81;;;6.96;59.37
52855;BME280;38719;51.418;7.286;2023-02-15T05:52:58;100888.81;;;7.10;58.64
52855;BME280;38719;51.418;7.286;2023-02-15T05:55:26;100884.34;;;7.14;58.39
52855;BME280;38719;51.418;7.286;2023-02-15T05:57:53;100893.16;;;7.16;58.66
52855;BME280;38719;51.418;7.286;2023-02-15T06:00:21;100891.41;;;7.15;58.63
52855;BME280;38719;51.418;7.286;2023-02-15T06:02:50;100888.75;;;7.15;59.02
52855;BME280;38719;51.418;7.286;2023-02-15T06:05:17;100886.06;;;7.18;59.23
52855;BME280;38719;51.418;7.286;2023-02-15T06:07:45;100885.06;;;7.23;58.73
52855;BME280;38719;51.418;7.286;2023-02-15T06:10:12;100887.97;;;7.06;58.37
52855;BME280;38719;51.418;7.286;2023-02-15T06:12:40;100873.84;;;7.07;59.19
52855;BME280;38719;51.418;7.286;2023-02-15T06:15:08;100882.59;;;7.14;59.17
52855;BME280;38719;51.418;7.286;2023-02-15T06:17:36;100889.66;;;7.14;58.32
52855;BME280;38719;51.418;7.286;2023-02-15T06:20:06;100885.09;;;7.22;58.26
52855;BME280;38719;51.418;7.286;2023-02-15T06:22:34;100886.72;;;7.31;57.94
52855;BME280;38719;51.418;7.286;2023-02-15T06:25:01;100896.41;;;7.33;57.75
52855;BME280;38719;51.418;7.286;2023-02-15T06:27:29;100896.34;;;7.38;57.71
52855;BME280;38719;51.418;7.286;2023-02-15T06:29:57;100888.53;;;7.30;57.64
52855;BME280;38719;51.418;7.286;2023-02-15T06:32:24;100897.63;;;7.12;58.34
52855;BME280;38719;51.418;7.286;2023-02-15T06:34:52;100894.25;;;7.02;58.15
52855;BME280;38719;51.418;7.286;2023-02-15T06:37:20;100890.97;;;6.85;58.98
52855;BME280;38719;51.418;7.286;2023-02-15T06:39:48;100885.91;;;6.68;59.12
52855;BME280;38719;51.418;7.286;2023-02-15T06:42:15;100887.88;;;6.55;59.60
52855;BME280;38719;51.418;7.286;2023-02-15T06:44:44;100888.63;;;6.65;59.43
52855;BME280;38719;51.418;7.286;2023-02-15T06:47:11;100887.69;;;6.67;59.19
52855;BME280;38719;51.418;7.286;2023-02-15T06:49:39;100897.31;;;6.74;59.34
52855;BME280;38719;51.418;7.286;2023-02-15T06:52:07;100896.56;;;6.63;59.38
52855;BME280;38719;51.418;7.286;2023-02-15T06:54:35;100888.63;;;6.63;59.50
52855;BME280;38719;51.418;7.286;2023-02-15T06:57:03;100898.22;;;6.70;59.80
52855;BME280;38719;51.418;7.286;2023-02-15T06:59:30;100898.03;;;6.84;59.31
52855;BME280;38719;51.418;7.286;2023-02-15T07:01:58;100889.00;;;6.99;58.29
52855;BME280;38719;51.418;7.286;2023-02-15T07:04:25;100891.66;;;6.99;58.21
52855;BME280;38719;51.418;7.286;2023-02-15T07:06:55;100895.22;;;6.95;58.57
52855;BME280;38719;51.418;7.286;2023-02-15T07:09:22;100887.03;;;7.12;58.24
52855;BME280;38719;51.418;7.286;2023-02-15T07:11:51;100890.50;;;7.16;57.89
52855;BME280;38719;51.418;7.286;2023-02-15T07:14:45;100898.44;;;7.16;58.00
52855;BME280;38719;51.418;7.286;2023-02-15T07:17:12;100896.06;;;6.99;57.98
52855;BME280;38719;51.418;7.286;2023-02-15T07:20:00;100895.19;;;6.98;57.91
52855;BME280;38719;51.418;7.286;2023-02-15T07:22:27;100884.81;;;6.83;58.90
52855;BME280;38719;51.418;7.286;2023-02-15T07:24:55;100887.59;;;6.75;58.84
52855;BME280;38719;51.418;7.286;2023-02-15T07:27:24;100885.06;;;6.67;58.61
52855;BME280;38719;51.418;7.286;2023-02-15T07:29:52;100882.50;;;6.61;59.05
52855;BME280;38719;51.418;7.286;2023-02-15T07:32:19;100876.34;;;6.59;59.50
52855;BME280;38719;51.418;7.286;2023-02-15T07:34:47;100881.41;;;6.76;59.00
52855;BME280;38719;51.418;7.286;2023-02-15T07:37:14;100880.44;;;6.80;58.83
52855;BME280;38719;51.418;7.286;2023-02-15T07:39:42;100883.13;;;6.78;58.91
52855;BME280;38719;51.418;7.286;2023-02-15T07:42:09;100876.94;;;6.80;58.53
52855;BME280;38719;51.418;7.286;2023-02-15T07:44:38;100876.81;;;6.87;59.06
52855;BME280;38719;51.418;7.286;2023-02-15T07:47:06;100873.91;;;7.04;58.09
52855;BME280;38719;51.418;7.286;2023-02-15T07:49:33;100865.69;;;7.20;57.70
52855;BME280;38719;51.418;7.286;2023-02-15T07:52:01;100856.75;;;7.27;56.98
52855;BME280;38719;51.418;7.286;2023-02-15T07:54:29;100860.16;;;7.35;57.77
52855;BME280;38719;51.418;7.286;2023-02-15T07:56:56;100853.69;;;7.52;57.59
52855;BME280;38719;51.418;7.286;2023-02-15T07:59:23;100848.16;;;7.64;56.48
52855;BME280;38719;51.418;7.286;2023-02-15T08:01:52;100855.91;;;7.75;56.06
52855;BME280;38719;51.418;7.286;2023-02-15T08:04:23;100852.22;;;7.84;56.13
52855;BME280;38719;51.418;7.286;2023-02-15T08:06:52;100843.25;;;7.89;55.28
52855;BME280;38719;51.418;7.286;2023-02-15T08:09:20;100845.06;;;7.87;55.21
52855;BME280;38719;51.418;7.286;2023-02-15T08:11:48;100840.69;;;7.85;56.25
52855;BME280;38719;51.418;7.286;2023-02-15T08:14:17;100838.09;;;7.82;56.32
52855;BME280;38719;51.418;7.286;2023-02-15T08:16:46;100835.44;;;7.82;55.89
52855;BME280;38719;51.418;7.286;2023-02-15T08:19:17;100834.41;;;7.89;56.50
52855;BME280;38719;51.418;7.286;2023-02-15T08:21:46;100832.59;;;7.93;56.21
52855;BME280;38719;51.418;7.286;2023-02-15T08:24:15;100836.00;;;7.98;55.41
52855;BME280;38719;51.418;7.286;2023-02-15T08:26:43;100834.34;;;7.94;55.35
52855;BME280;38719;51.418;7.286;2023-02-15T08:29:13;100823.41;;;8.09;55.57
52855;BME280;38719;51.418;7.286;2023-02-15T08:31:41;100825.84;;;8.20;55.20
52855;BME280;38719;51.418;7.286;2023-02-15T08:34:10;100828.41;;;8.25;54.48
52855;BME280;38719;51.418;7.286;2023-02-15T08:36:40;100823.81;;;8.31;54.50
52855;BME280;38719;51.418;7.286;2023-02-15T08:39:07;100825.28;;;8.46;55.54
52855;BME280;38719;51.418;7.286;2023-02-15T08:41:36;100823.47;;;8.48;54.37
52855;BME280;38719;51.418;7.286;2023-02-15T08:44:06;100825.06;;;8.57;55.12
52855;BME280;38719;51.418;7.286;2023-02-15T08:46:35;100817.94;;;8.59;54.68
52855;BME280;38719;51.418;7.286;2023-02-15T08:49:04;100819.50;;;8.68;54.54
52855;BME280;38719;51.418;7.286;2023-02-15T08:51:33;100823.88;;;8.70;54.01
52855;BME280;38719;51.418;7.286;2023-02-15T08:54:04;100810.50;;;8.74;54.30
52855;BME280;38719;51.418;7.286;2023-02-15T08:56:34;100814.75;;;8.81;53.87
52855;BME280;38719;51.418;7.286;2023-02-15T08:59:03;100817.38;;;8.84;53.85
52855;BME280;38719;51.418;7.286;2023-02-15T09:01:33;100817.38;;;8.84;53.67
52855;BME280;38719;51.418;7.286;2023-02-15T09:04:02;100807.41;;;8.92;53.50
52855;BME280;38719;51.418;7.286;2023-02-15T09:06:31;100810.22;;;8.86;53.39
52855;BME280;38719;51.418;7.286;2023-02-15T09:08:59;100804.00;;;8.87;54.32
52855;BME280;38719;51.418;7.286;2023-02-15T09:11:29;100801.06;;;8.98;53.28
52855;BME280;38719;51.418;7.286;2023-02-15T09:13:59;100800.81;;;9.09;53.65
52855;BME280;38719;51.418;7.286;2023-02-15T09:16:28;100796.19;;;9.15;53.79
52855;BME280;38719;51.418;7.286;2023-02-15T09:18:57;100796.88;;;9.24;53.48
52855;BME280;38719;51.418;7.286;2023-02-15T09:21:25;100792.38;;;9.27;53.54
52855;BME280;38719;51.418;7.286;2023-02-15T09:23:56;100795.88;;;9.29;53.11
52855;BME280;38719;51.418;7.286;2023-02-15T09:26:24;100798.44;;;9.32;52.41
52855;BME280;38719;51.418;7.286;2023-02-15T09:28:54;100785.88;;;9.38;52.29
52855;BME280;38719;51.418;7.286;2023-02-15T09:31:24;100791.03;;;9.44;52.58
52855;BME280;38719;51.418;7.286;2023-02-15T09:33:53;100781.97;;;9.51;52.58
52855;BME280;38719;51.418;7.286;2023-02-15T09:36:23;100784.47;;;9.57;52.72
52855;BME280;38719;51.418;7.286;2023-02-15T09:38:55;100787.81;;;9.65;52.81
52855;BME280;38719;51.418;7.286;2023-02-15T09:41:33;100782.25;;;9.73;52.28
52855;BME280;38719;51.418;7.286;2023-02-15T09:44:14;100792.72;;;9.79;51.93
52855;BME280;38719;51.418;7.286;2023-02-15T09:46:57;100793.41;;;9.86;51.63
52855;BME280;38719;51.418;7.286;2023-02-15T09:49:31;100794.84;;;9.98;51.79
52855;BME280;38719;51.418;7.286;2023-02-15T09:52:17;100793.81;;;10.04;52.39
52855;BME280;38719;51.418;7.286;2023-02-15T09:55:04;100794.69;;;10.04;53.28
52855;BME280;38719;51.418;7.286;2023-02-15T09:57:39;100793.81;;;10.04;53.58
52855;BME280;38719;51.418;7.286;2023-02-15T10:00:20;100797.41;;;10.01;53.01
52855;BME280;38719;51.418;7.286;2023-02-15T10:03:01;100790.88;;;10.13;52.64
52855;BME280;38719;51.418;7.286;2023-02-15T10:05:38;100794.19;;;10.21;51.49
52855;BME280;38719;51.418;7.286;2023-02-15T10:08:24;100790.41;;;10.28;51.20
52855;BME280;38719;51.418;7.286;2023-02-15T10:11:00;100793.88;;;10.30;50.71
52855;BME280;38719;51.418;7.286;2023-02-15T10:13:57;100806.19;;;10.36;49.82
52855;BME280;38719;51.418;7.286;2023-02-15T10:16:38;100809.00;;;10.30;49.58
52855;BME280;38719;51.418;7.286;2023-02-15T10:19:12;100804.47;;;10.32;49.51
52855;BME280;38719;51.418;7.286;2023-02-15T10:21:49;100806.66;;;10.49;50.21
52855;BME280;38719;51.418;7.286;2023-02-15T10:24:38;100809.06;;;10.58;50.02
52855;BME280;38719;51.418;7.286;2023-02-15T10:27:19;100803.28;;;10.72;49.91
52855;BME280;38719;51.418;7.286;2023-02-15T10:29:57;100795.88;;;10.82;50.01
52855;BME280;38719;51.418;7.286;2023-02-15T10:32:32;100798.28;;;10.90;50.07
52855;BME280;38719;51.418;7.286;2023-02-15T10:35:04;100784.59;;;11.01;49.52
52855;BME280;38719;51.418;7.286;2023-02-15T10:38:04;100789.59;;;11.10;49.63
52855;BME280;38719;51.418;7.286;2023-02-15T10:40:40;100793.00;;;11.15;49.33
52855;BME280;38719;51.418;7.286;2023-02-15T10:43:20;100792.06;;;11.16;48.42
52855;BME280;38719;51.418;7.286;2023-02-15T10:46:01;100796.25;;;11.25;48.39
52855;BME280;38719;51.418;7.286;2023-02-15T10:48:54;100788.88;;;11.32;48.29
52855;BME280;38719;51.418;7.286;2023-02-15T10:51:32;100782.63;;;11.33;47.63
52855;BME280;38719;51.418;7.286;2023-02-15T10:54:14;100785.84;;;11.42;47.66
52855;BME280;38719;51.418;7.286;2023-02-15T10:56:50;100786.56;;;11.48;47.41
52855;BME280;38719;51.418;7.286;2023-02-15T10:59:36;100785.13;;;11.63;47.52
52855;BME280;38719;51.418;7.286;2023-02-15T11:02:10;100784.91;;;11.69;47.18
52855;BME280;38719;51.418;7.286;2023-02-15T11:04:49;100785.59;;;11.74;46.55
52855;BME280;38719;51.418;7.286;2023-02-15T11:07:22;100776.50;;;11.80;46.62
52855;BME280;38719;51.418;7.286;2023-02-15T11:09:51;100784.78;;;11.72;46.32
52855;BME280;38719;51.418;7.286;2023-02-15T11:12:22;100777.38;;;11.80;46.42
52855;BME280;38719;51.418;7.286;2023-02-15T11:14:55;100779.94;;;11.83;46.05
52855;BME280;38719;51.418;7.286;2023-02-15T11:17:28;100774.81;;;12.02;45.16
52855;BME280;38719;51.418;7.286;2023-02-15T11:20:04;100773.03;;;12.03;45.10
52855;BME280;38719;51.418;7.286;2023-02-15T11:22:35;100775.72;;;12.01;45.81
52855;BME280;38719;51.418;7.286;2023-02-15T11:25:15;100763.88;;;12.08;44.75
52855;BME280;38719;51.418;7.286;2023-02-15T11:27:45;100758.81;;;12.24;45.56
52855;BME280;38719;51.418;7.286;2023-02-15T11:30:17;100763.69;;;12.37;45.02
52855;BME280;38719;51.418;7.286;2023-02-15T11:32:47;100751.81;;;12.44;44.92
52855;BME280;38719;51.418;7.286;2023-02-15T11:35:23;100756.25;;;12.45;45.30
52855;BME280;38719;51.418;7.286;2023-02-15T11:37:57;100760.16;;;12.58;45.44
52855;BME280;38719;51.418;7.286;2023-02-15T11:40:29;100746.75;;;12.60;44.89
52855;BME280;38719;51.418;7.286;2023-02-15T11:43:00;100751.19;;;12.60;44.36
52855;BME280;38719;51.418;7.286;2023-02-15T11:45:32;100753.88;;;12.60;43.85
52855;BME280;38719;51.418;7.286;2023-02-15T11:48:07;100745.91;;;12.80;44.31
52855;BME280;38719;51.418;7.286;2023-02-15T11:50:37;100748.91;;;12.93;44.14
52855;BME280;38719;51.418;7.286;2023-02-15T11:53:09;100752.22;;;13.00;44.38
52855;BME280;38719;51.418;7.286;2023-02-15T11:55:39;100746.13;;;12.96;42.23
52855;BME280;38719;51.418;7.286;2023-02-15T11:58:14;100738.84;;;13.00;42.49
52855;BME280;38719;51.418;7.286;2023-02-15T12:00:45;100734.31;;;13.02;43.57
52855;BME280;38719;51.418;7.286;2023-02-15T12:03:18;100737.66;;;13.07;43.39
52855;BME280;38719;51.418;7.286;2023-02-15T12:05:54;100741.38;;;13.03;42.78
52855;BME280;38719;51.418;7.286;2023-02-15T12:08:23;100740.06;;;13.13;44.11
52855;BME280;38719;51.418;7.286;2023-02-15T12:10:57;100734.50;;;13.18;43.89
52855;BME280;38719;51.418;7.286;2023-02-15T12:13:28;100744.06;;;13.23;43.26
52855;BME280;38719;51.418;7.286;2023-02-15T12:15:57;100738.19;;;13.36;42.56
52855;BME280;38719;51.418;7.286;2023-02-15T12:18:36;100727.63;;;13.33;44.39
52855;BME280;38719;51.418;7.286;2023-02-15T12:21:08;100730.13;;;13.37;43.45
52855;BME280;38719;51.418;7.286;2023-02-15T12:23:42;100723.75;;;13.40;42.95
52855;BME280;38719;51.418;7.286;2023-02-15T12:26:11;100717.16;;;13.49;43.16
52855;BME280;38719;51.418;7.286;2023-02-15T12:28:41;100712.22;;;13.59;43.67
52855;BME280;38719;51.418;7.286;2023-02-15T12:31:20;100713.13;;;13.59;44.47
52855;BME280;38719;51.418;7.286;2023-02-15T12:33:50;100703.91;;;13.65;44.22
52855;BME280;38719;51.418;7.286;2023-02-15T12:36:24;100708.34;;;13.66;43.27
52855;BME280;38719;51.418;7.286;2023-02-15T12:39:14;100704.31;;;13.76;43.81
52855;BME280;38719;51.418;7.286;2023-02-15T12:41:45;100703.31;;;13.79;43.46
52855;BME280;38719;51.418;7.286;2023-02-15T12:44:16;100689.69;;;13.83;43.10
52855;BME280;38719;51.418;7.286;2023-02-15T12:46:56;100691.94;;;13.93;44.33
52855;BME280;38719;51.418;7.286;2023-02-15T12:49:25;100682.16;;;13.92;43.62
52855;BME280;38719;51.418;7.286;2023-02-15T12:51:56;100692.75;;;13.95;43.46
52855;BME280;38719;51.418;7.286;2023-02-15T12:54:36;100680.78;;;14.02;42.52
52855;BME280;38719;51.418;7.286;2023-02-15T12:57:24;100686.50;;;14.13;43.18
52855;BME280;38719;51.418;7.286;2023-02-15T12:59:55;100686.44;;;14.15;42.68
52855;BME280;38719;51.418;7.286;2023-02-15T13:02:28;100681.91;;;14.15;42.26
52855;BME280;38719;51.418;7.286;2023-02-15T13:05:04;100680.06;;;14.17;42.14
52855;BME280;38719;51.418;7.286;2023-02-15T13:07:34;100674.47;;;14.22;45.48
52855;BME280;38719;51.418;7.286;2023-02-15T13:10:02;100674.19;;;14.28;42.57
52855;BME280;38719;51.418;7.286;2023-02-15T13:12:31;100668.72;;;14.30;43.25
52855;BME280;38719;51.418;7.286;2023-02-15T13:14:59;100674.66;;;14.37;43.31
52855;BME280;38719;51.418;7.286;2023-02-15T13:17:30;100670.81;;;14.42;42.63
52855;BME280;38719;51.418;7.286;2023-02-15T13:20:03;100669.94;;;14.42;42.04
52855;BME280;38719;51.418;7.286;2023-02-15T13:22:38;100664.44;;;14.45;42.18
52855;BME280;38719;51.418;7.286;2023-02-15T13:25:13;100667.31;;;14.40;41.37
52855;BME280;38719;51.418;7.286;2023-02-15T13:27:42;100669.56;;;14.49;42.23